createdAt,value
2023-04-10T00:07:01.684Z,6.7
2023-04-10T00:17:03.649Z,7.5
2023-04-10T00:27:05.389Z,7.4
2023-04-10T00:47:10.357Z,7.4
2023-04-10T00:57:12.798Z,7.2
2023-04-10T01:17:16.810Z,7
2023-04-10T01:27:18.916Z,6.5
2023-04-10T01:37:20.880Z,6.2
2023-04-10T01:47:22.715Z,6.2
2023-04-10T01:57:25.175Z,6.2
2023-04-10T02:07:27.252Z,6.6
2023-04-10T02:17:29.078Z,6.2
2023-04-10T02:27:30.972Z,6.2
2023-04-10T02:37:32.963Z,5.9
2023-04-10T02:47:34.744Z,5.8
2023-04-10T02:57:37.349Z,5.8
2023-04-10T03:07:39.918Z,5.7
2023-04-10T03:17:42.487Z,5.6
2023-04-10T03:27:44.160Z,5.5
2023-04-10T03:37:45.981Z,5.5
2023-04-10T03:47:48.175Z,5.5
2023-04-10T03:57:50.404Z,5.6
2023-04-10T04:07:52.669Z,5.8
2023-04-10T04:17:55.232Z,5.7
2023-04-10T04:27:57.111Z,5.7
2023-04-10T04:37:59.026Z,5.8
2023-04-10T04:48:00.818Z,6.7
2023-04-10T04:58:02.627Z,6.8
2023-04-10T05:08:05.190Z,6.8
2023-04-10T05:18:06.925Z,7
2023-04-10T05:28:08.551Z,7.1
2023-04-10T05:38:10.519Z,7.2
2023-04-10T05:48:13.065Z,7.1
2023-04-10T05:58:15.361Z,7
2023-04-10T06:28:29.129Z,8.8
2023-04-10T06:48:33.481Z,10.3
2023-04-10T07:08:38.099Z,11.5
2023-04-10T07:28:42.152Z,12.7
2023-04-10T07:38:43.747Z,13.3
2023-04-10T07:48:45.973Z,13.4
2023-04-10T08:18:52.476Z,14.4
2023-04-10T08:28:54.458Z,14.5
2023-04-10T08:48:58.677Z,15.4
2023-04-10T09:09:02.957Z,15.8
2023-04-10T09:19:06.426Z,16
2023-04-10T09:29:07.359Z,16.3
2023-04-10T09:39:09.258Z,16.4
2023-04-10T09:49:11.359Z,16.8
2023-04-10T10:09:16.122Z,16.8
2023-04-10T10:19:17.793Z,17.2
2023-04-10T10:29:20.335Z,17.1
2023-04-10T10:49:24.359Z,17
2023-04-10T10:59:26.757Z,17.6
2023-04-10T11:09:28.996Z,17.3
2023-04-10T11:19:31.519Z,17.7
2023-04-10T11:39:36.464Z,17.9
2023-04-10T11:49:38.820Z,17.9
2023-04-10T11:59:40.634Z,18.2
2023-04-10T12:09:43.125Z,18
2023-04-10T12:19:45.061Z,18
2023-04-10T12:29:46.822Z,18.6
2023-04-10T12:39:49.384Z,18.6
2023-04-10T12:49:51.097Z,18.4
2023-04-10T12:59:53.120Z,18.9
2023-04-10T13:09:55.576Z,19.1
2023-04-10T13:19:58.170Z,19.5
2023-04-10T13:50:04.120Z,18.5
2023-04-10T14:10:08.655Z,18.6
2023-04-10T14:30:13.082Z,18.2
2023-04-10T14:50:18.197Z,17.9
2023-04-10T15:10:21.823Z,17.6
2023-04-10T15:30:26.187Z,17.1
2023-04-10T15:50:30.868Z,17
2023-04-10T16:10:35.309Z,16.7
2023-04-10T16:30:39.179Z,16.9
2023-04-10T16:40:41.469Z,17
2023-04-10T17:00:45.759Z,16.9
2023-04-10T17:10:48.165Z,16.9
2023-04-10T17:20:50.165Z,16.7
2023-04-10T17:30:51.814Z,16.1
2023-04-10T18:00:58.597Z,14.1
2023-04-10T18:11:00.670Z,12.9
2023-04-10T18:21:02.930Z,12.3
2023-04-10T18:31:05.263Z,11.9
2023-04-10T18:41:07.081Z,12
2023-04-10T19:01:10.854Z,12.1
2023-04-10T19:11:14.986Z,11.6
2023-04-10T19:21:15.682Z,11.7
2023-04-10T19:31:17.779Z,11.5
2023-04-10T19:41:19.404Z,11.4
2023-04-10T19:51:21.914Z,11.5
2023-04-10T20:01:23.837Z,11.2
2023-04-10T20:11:26.368Z,10.9
2023-04-10T20:21:28.652Z,10.8
2023-04-10T20:31:31.641Z,10.6
2023-04-10T20:41:32.935Z,10.5
2023-04-10T20:51:35.084Z,10.4
2023-04-10T21:01:37.161Z,10.2
2023-04-10T21:11:39.426Z,10.2
2023-04-10T21:21:41.301Z,10.1
2023-04-10T21:31:43.155Z,9.7
2023-04-10T21:41:45.484Z,9.4
2023-04-10T21:51:48.188Z,9.3
2023-04-10T22:01:50.122Z,9.3
2023-04-10T22:11:52.560Z,9.3
2023-04-10T22:21:54.592Z,9.4
2023-04-10T22:31:57.204Z,9.4
2023-04-10T22:41:58.921Z,9.4
2023-04-10T23:02:02.742Z,9.3
2023-04-10T23:12:05.350Z,9.1
2023-04-10T23:32:09.528Z,9.1
2023-04-10T23:42:11.925Z,9.3
2023-04-10T23:52:14.307Z,9.4
